Leba, Poland
Current Conditions -  °F | °C
As of 11:00 PM on Tuesday 27 Jan 2015 (Local Time) from EPGD Reporting Station
Drizzle Drizzle  
Wind Chill: 26°   Ceiling: 300
Heat Index: 34°   Visibility: 1.5mi
Dew Point: 34°   Wind: 9mph
Humidity: 100%   Direction: 320°NW
Pressure: 29.8"   Gusts: NA
Location:  54.75°N, 17.53°E
Report Text: EPGD 272100Z 32008KT 2500 -DZ BR OVC003 01/01 Q1009 R11/290095
Loading
Personal Weather Stations






























Interactive Weather Map New forecast layout! Learn more

10-Day Weather Forecast

Advertisements
Track Severe Weather on mobile